Time;durP1;ratioP1;P1;durP2;ratioP2;P2;SDS_P1;SDS_P2;PMS_P1;PMS_P2;Temp;Humidity;BMP_temperature;BMP_pressure;BME280_temperature;BME280_humidity;BME280_pressure;Samples;Min_cycle;Max_cycle;Signal;HPM_P1;HPM_P2
2023/04/29 00:05:45;;;;;;;16.5;9.7;;;;;;;5.6;72.2;98500;;;;
2023/04/29 00:15:45;;;;;;;16.5;9.7;;;;;;;5.6;73.4;98490;;;;
2023/04/29 00:26:45;;;;;;;20.2;11.1;;;;;;;5.6;72.3;98490;;;;
2023/04/29 00:37:45;;;;;;;20.2;11.1;;;;;;;5.6;72.3;98490;;;;
2023/04/29 00:47:45;;;;;;;20.2;11.1;;;;;;;5.6;72.5;98480;;;;
2023/04/29 00:58:48;;;;;;;16.1;8.7;;;;;;;5.7;72.3;98480;;;;
2023/04/29 01:09:45;;;;;;;16.1;8.7;;;;;;;5.8;72.3;98470;;;;
2023/04/29 01:19:45;;;;;;;16.1;8.7;;;;;;;6;73.5;98480;;;;
2023/04/29 01:30:45;;;;;;;15.8;9.7;;;;;;;6.1;73.8;98470;;;;
2023/04/29 01:41:46;;;;;;;15.8;9.7;;;;;;;6.4;73.5;98470;;;;
2023/04/29 01:51:45;;;;;;;15.8;9.7;;;;;;;6.6;73.2;98460;;;;
2023/04/29 02:01:46;;;;;;;16.6;9.9;;;;;;;6.8;72.9;98460;;;;
2023/04/29 02:12:45;;;;;;;16.6;9.9;;;;;;;7;72.5;98450;;;;
2023/04/29 02:23:45;;;;;;;16.6;9.9;;;;;;;7.2;73;98450;;;;
2023/04/29 02:34:45;;;;;;;17.8;11;;;;;;;7.2;72.3;98470;;;;
2023/04/29 02:44:45;;;;;;;17.8;11;;;;;;;7.2;72.9;98460;;;;
2023/04/29 02:55:46;;;;;;;16.6;10.3;;;;;;;7.2;73.8;98460;;;;
2023/04/29 03:05:46;;;;;;;16.6;10.3;;;;;;;7.2;74.5;98450;;;;
2023/04/29 03:16:45;;;;;;;14.9;9.7;;;;;;;7.3;75.5;98440;;;;
2023/04/29 03:26:46;;;;;;;14.9;9.7;;;;;;;7.4;75.7;98430;;;;
2023/04/29 03:37:45;;;;;;;14.9;9.7;;;;;;;7.6;75.7;98440;;;;
2023/04/29 03:48:45;;;;;;;17.4;13;;;;;;;7.7;76.5;98440;;;;
2023/04/29 03:58:45;;;;;;;17.4;13;;;;;;;7.7;77.5;98440;;;;
2023/04/29 04:08:45;;;;;;;17.4;13;;;;;;;7.9;77.8;98430;;;;
2023/04/29 04:19:45;;;;;;;16.9;11.3;;;;;;;8.1;77.7;98440;;;;
2023/04/29 04:29:45;;;;;;;16.9;11.3;;;;;;;8.2;77.7;98430;;;;
2023/04/29 04:39:46;;;;;;;16.9;11.3;;;;;;;8.4;77.7;98430;;;;
2023/04/29 04:49:45;;;;;;;19.1;12.4;;;;;;;8.7;78;98430;;;;
2023/04/29 05:00:45;;;;;;;19.1;12.4;;;;;;;9.1;79.3;98420;;;;
2023/04/29 05:11:45;;;;;;;19.1;12.4;;;;;;;9.6;79;98420;;;;
2023/04/29 05:21:45;;;;;;;13.4;8.1;;;;;;;9.7;77.8;98430;;;;
2023/04/29 05:31:45;;;;;;;13.4;8.1;;;;;;;10.1;78.9;98420;;;;
2023/04/29 05:42:46;;;;;;;13.4;8.1;;;;;;;10.7;78.1;98430;;;;
2023/04/29 05:53:45;;;;;;;11;7.6;;;;;;;11.2;76.2;98450;;;;
2023/04/29 06:04:46;;;;;;;11;7.6;;;;;;;11.4;75.1;98440;;;;
2023/04/29 06:14:46;;;;;;;13;10.6;;;;;;;11.6;75.1;98440;;;;
2023/04/29 06:25:45;;;;;;;9.7;6.6;;;;;;;11.8;74.6;98430;;;;
2023/04/29 06:35:45;;;;;;;9.7;6.6;;;;;;;12.4;73.9;98420;;;;
2023/04/29 06:45:45;;;;;;;9.7;6.6;;;;;;;13.1;72.7;98430;;;;
2023/04/29 06:55:45;;;;;;;7.8;5.3;;;;;;;13.5;70.3;98430;;;;
2023/04/29 07:05:45;;;;;;;7.8;5.3;;;;;;;13.9;68.7;98430;;;;
2023/04/29 07:16:45;;;;;;;7.8;5.3;;;;;;;14.3;66.5;98420;;;;
2023/04/29 07:26:45;;;;;;;8.9;5.3;;;;;;;14.4;65.3;98430;;;;
2023/04/29 07:36:46;;;;;;;8.9;5.3;;;;;;;14.8;64;98430;;;;
2023/04/29 07:47:45;;;;;;;8.9;5.3;;;;;;;15;62.2;98430;;;;
2023/04/29 07:57:45;;;;;;;8;5.4;;;;;;;15.2;64.1;98430;;;;
2023/04/29 08:07:45;;;;;;;8;5.4;;;;;;;15.3;61.6;98430;;;;
2023/04/29 08:17:45;;;;;;;8;5.4;;;;;;;15.6;61.6;98430;;;;
2023/04/29 08:27:46;;;;;;;8.2;5.3;;;;;;;16.1;59.9;98430;;;;
2023/04/29 08:37:46;;;;;;;8.2;5.3;;;;;;;16.8;57.6;98430;;;;
2023/04/29 08:48:45;;;;;;;8.2;5.3;;;;;;;17.2;56.6;98430;;;;
2023/04/29 08:59:45;;;;;;;7.1;4.8;;;;;;;17.7;56.5;98430;;;;
2023/04/29 09:09:46;;;;;;;7.1;4.8;;;;;;;17.6;55.6;98430;;;;
2023/04/29 09:20:45;;;;;;;7.1;4.8;;;;;;;18.1;53.1;98420;;;;
2023/04/29 09:30:46;;;;;;;9;4.8;;;;;;;18.3;53.5;98420;;;;
2023/04/29 09:41:46;;;;;;;9;4.8;;;;;;;18.5;53.5;98420;;;;
2023/04/29 09:51:45;;;;;;;9;4.8;;;;;;;18.4;54;98410;;;;
2023/04/29 10:02:46;;;;;;;8.2;5.4;;;;;;;18.6;52.9;98400;;;;
2023/04/29 10:13:46;;;;;;;8.2;5.4;;;;;;;18.7;51.8;98390;;;;
2023/04/29 10:23:46;;;;;;;8.2;5.4;;;;;;;18.3;53.4;98390;;;;
2023/04/29 10:33:46;;;;;;;8.7;5.1;;;;;;;19;52.3;98380;;;;
2023/04/29 10:43:46;;;;;;;8.7;5.1;;;;;;;19.2;52.7;98380;;;;
2023/04/29 10:54:47;;;;;;;10.1;5;;;;;;;19.1;52.7;98370;;;;
2023/04/29 11:05:46;;;;;;;10.1;5;;;;;;;19.1;53;98360;;;;
2023/04/29 11:15:46;;;;;;;10.1;5;;;;;;;18.9;52.2;98360;;;;
2023/04/29 11:26:47;;;;;;;8.3;5.1;;;;;;;19.1;54.5;98360;;;;
2023/04/29 11:36:45;;;;;;;8.3;5.1;;;;;;;19.3;50.5;98360;;;;
2023/04/29 11:46:46;;;;;;;8.3;5.1;;;;;;;19.4;50.7;98360;;;;
2023/04/29 11:57:47;;;;;;;9.1;5.1;;;;;;;19.4;52.1;98350;;;;
2023/04/29 12:07:46;;;;;;;9.1;5.1;;;;;;;19.6;52.3;98350;;;;
2023/04/29 12:17:46;;;;;;;9.1;5.1;;;;;;;19.5;52.2;98350;;;;
2023/04/29 12:27:46;;;;;;;7.6;5.1;;;;;;;19.3;52.7;98350;;;;
2023/04/29 12:38:46;;;;;;;7.6;5.1;;;;;;;18.9;52.9;98340;;;;
2023/04/29 12:48:46;;;;;;;7.6;5.1;;;;;;;19;53.8;98340;;;;
2023/04/29 12:58:46;;;;;;;8.1;5.2;;;;;;;18.9;53.8;98330;;;;
2023/04/29 13:09:46;;;;;;;8.1;5.2;;;;;;;18.5;54.2;98330;;;;
2023/04/29 13:20:46;;;;;;;8.1;5.2;;;;;;;17.8;55.1;98330;;;;
2023/04/29 13:30:46;;;;;;;9.5;5.6;;;;;;;17.3;55.9;98340;;;;
2023/04/29 13:40:46;;;;;;;9.5;5.6;;;;;;;17.1;56.7;98330;;;;
2023/04/29 13:50:46;;;;;;;9.5;5.6;;;;;;;16.6;60;98330;;;;
2023/04/29 14:00:46;;;;;;;12;8;;;;;;;16.2;63.1;98340;;;;
2023/04/29 14:11:46;;;;;;;12;8;;;;;;;16.1;63.3;98340;;;;
2023/04/29 14:21:46;;;;;;;12;8;;;;;;;16.6;62.5;98350;;;;
2023/04/29 14:31:46;;;;;;;19.3;14.2;;;;;;;17.1;61.5;98340;;;;
2023/04/29 14:41:47;;;;;;;19.3;14.2;;;;;;;17.4;60.6;98340;;;;
2023/04/29 14:52:46;;;;;;;19.3;14.2;;;;;;;17.8;59;98340;;;;
2023/04/29 15:02:46;;;;;;;16.8;12;;;;;;;18.9;57.2;98340;;;;
2023/04/29 15:13:46;;;;;;;16.8;12;;;;;;;19.6;53.6;98340;;;;
2023/04/29 15:24:46;;;;;;;10;7.7;;;;;;;20.2;51.2;98340;;;;
2023/04/29 15:34:46;;;;;;;10;7.7;;;;;;;22.2;48.4;98330;;;;
2023/04/29 15:44:46;;;;;;;10;7.7;;;;;;;24.6;44.2;98320;;;;
2023/04/29 15:55:46;;;;;;;8.5;5.1;;;;;;;23.7;43.5;98320;;;;
2023/04/29 16:06:46;;;;;;;8.5;5.1;;;;;;;23;43.3;98320;;;;
2023/04/29 16:16:46;;;;;;;8.5;5.1;;;;;;;21.9;44.8;98320;;;;
2023/04/29 16:26:47;;;;;;;6.8;4.2;;;;;;;20.7;47.5;98320;;;;
2023/04/29 16:36:46;;;;;;;6.8;4.2;;;;;;;19.6;49.7;98330;;;;
2023/04/29 16:46:46;;;;;;;6.8;4.2;;;;;;;18.7;51.7;98330;;;;
2023/04/29 16:57:46;;;;;;;8.7;5.6;;;;;;;18.1;53.4;98340;;;;
2023/04/29 17:08:46;;;;;;;8.7;5.6;;;;;;;17.4;55.5;98350;;;;
2023/04/29 17:19:48;;;;;;;8.7;5.6;;;;;;;16.9;56.7;98360;;;;
2023/04/29 17:30:46;;;;;;;10.5;6.9;;;;;;;16.5;58.1;98360;;;;
2023/04/29 17:40:46;;;;;;;10.5;6.9;;;;;;;16.1;58.8;98370;;;;
2023/04/29 17:50:46;;;;;;;10.5;6.9;;;;;;;15.6;65.1;98390;;;;
2023/04/29 18:01:46;;;;;;;13;10.7;;;;;;;14.9;71.5;98390;;;;
2023/04/29 18:11:46;;;;;;;13;10.7;;;;;;;14.2;75.5;98390;;;;
2023/04/29 18:21:46;;;;;;;13;10.7;;;;;;;13.9;77.3;98400;;;;
2023/04/29 18:31:46;;;;;;;19.9;14.7;;;;;;;13.6;79;98410;;;;
2023/04/29 18:42:46;;;;;;;19.9;14.7;;;;;;;13.4;80.2;98480;;;;
2023/04/29 18:52:46;;;;;;;19.9;14.7;;;;;;;13.4;80.3;98480;;;;
2023/04/29 19:03:46;;;;;;;17.7;15.1;;;;;;;13.3;80.8;98480;;;;
2023/04/29 19:13:46;;;;;;;17.7;15.1;;;;;;;13.1;82.5;98480;;;;
2023/04/29 19:24:46;;;;;;;13.2;9.5;;;;;;;13;83.1;98490;;;;
2023/04/29 19:34:46;;;;;;;13.2;9.5;;;;;;;12.9;82.9;98490;;;;
2023/04/29 19:44:46;;;;;;;13.2;9.5;;;;;;;12.9;83;98480;;;;
2023/04/29 19:55:46;;;;;;;15.5;13.3;;;;;;;12.9;83;98490;;;;
2023/04/29 20:05:46;;;;;;;15.5;13.3;;;;;;;12.8;82.9;98480;;;;
2023/04/29 20:16:46;;;;;;;15.5;13.3;;;;;;;12.8;82.9;98480;;;;
2023/04/29 20:26:46;;;;;;;18.4;11.4;;;;;;;12.8;83.4;98480;;;;
2023/04/29 20:37:46;;;;;;;18.4;11.4;;;;;;;12.8;83.3;98490;;;;
2023/04/29 20:47:46;;;;;;;18.4;11.4;;;;;;;12.8;83.3;98470;;;;
2023/04/29 20:57:46;;;;;;;16.8;11.9;;;;;;;12.7;84;98460;;;;
2023/04/29 21:08:46;;;;;;;16.8;11.9;;;;;;;12.6;84.2;98470;;;;
2023/04/29 21:18:46;;;;;;;16.8;11.9;;;;;;;12.7;84.1;98490;;;;
2023/04/29 21:28:46;;;;;;;15.3;10.5;;;;;;;12.7;84;98490;;;;
2023/04/29 21:38:47;;;;;;;15.3;10.5;;;;;;;12.6;84.9;98490;;;;
2023/04/29 21:49:46;;;;;;;15.3;10.5;;;;;;;12.5;85.1;98500;;;;
2023/04/29 21:59:47;;;;;;;14.6;10.6;;;;;;;12.5;85.1;98500;;;;
2023/04/29 22:09:48;;;;;;;14.6;10.6;;;;;;;12.5;84.5;98500;;;;
2023/04/29 22:20:46;;;;;;;14.6;10.6;;;;;;;12.5;84.5;98500;;;;
2023/04/29 22:31:46;;;;;;;14.9;10.8;;;;;;;12.4;84.8;98510;;;;
2023/04/29 22:41:46;;;;;;;14.9;10.8;;;;;;;12.3;85.6;98510;;;;
2023/04/29 22:52:46;;;;;;;14.9;10.8;;;;;;;12.4;85.9;98520;;;;
2023/04/29 23:02:46;;;;;;;18.6;15.5;;;;;;;12.4;86.4;98530;;;;
2023/04/29 23:13:46;;;;;;;18.6;15.5;;;;;;;12.2;87.4;98530;;;;
2023/04/29 23:24:46;;;;;;;20.5;15.5;;;;;;;12.2;88;98530;;;;
2023/04/29 23:35:46;;;;;;;20.5;15.5;;;;;;;12.2;88.1;98530;;;;
2023/04/29 23:46:46;;;;;;;20.5;15.5;;;;;;;12.1;88.2;98530;;;;
2023/04/29 23:57:46;;;;;;;15.7;12.4;;;;;;;12.1;88.1;98530;;;;
